GUCY/CKY METAR and TAF weather

Enter ICAO airport designator
Station Type Date Time Source
GUCY METAR 2019/05/26 19:00 UTC NOAA

GUCY 261900Z 27008KT 9999 FEW015 FEW023CB BKN110 28/25 Q1011 CB/NE-E-SE NOSIG


Station Type Date Time Source
GUCY Decoded METAR 2019/05/26 19:00 UTC NOAA

Conakry / Gbessia, Guinea (GUCY) 09-34N 013-37W 26M
May 26, 2019 - 03:00 PM EDT / 2019.05.26 1900 UTC
Wind: from the W (270 degrees) at 9 MPH (8 KT):0
Visibility: greater than 7 mile(s):0
Sky conditions: mostly cloudy
Weather: Cumulonimbus clouds observed
Temperature: 82 F (28 C)
Dew Point: 77 F (25 C)
Relative Humidity: 83%
Pressure (altimeter): 29.85 in. Hg (1011 hPa)
ob: GUCY 261900Z 27008KT 9999 FEW015 FEW023CB BKN110 28/25 Q1011 CB/NE-E-SE NOSIG
cycle: 19

Station Type Date Time Source
GUCY TAF 2019/05/26 12:51 UTC NOAA

TAF GUCY 261100Z 2612/2718 26006KT 9999 SCT015 SCT110
TEMPO 2626/2621 TS FEW023CB BKN110 PROB30
TEMPO 2702/2707 4000 -TSRA BKN013 FEW020CB BKN100

Example: see airport list